createdAt,value
2018-12-04T00:00:40.807Z,1.5
2018-12-04T00:03:41.181Z,1.2
2018-12-04T00:06:40.820Z,1
2018-12-04T00:09:41.922Z,1.4
2018-12-04T00:12:41.104Z,1.1
2018-12-04T00:15:40.791Z,1.1
2018-12-04T00:18:41.184Z,1.1
2018-12-04T00:21:41.104Z,1.1
2018-12-04T00:24:40.775Z,1.2
2018-12-04T00:27:40.916Z,1
2018-12-04T00:30:41.846Z,1.2
2018-12-04T00:33:41.046Z,1.2
2018-12-04T00:36:40.823Z,1.3
2018-12-04T00:39:41.182Z,1.1
2018-12-04T00:42:40.781Z,1.1
2018-12-04T00:45:41.142Z,1.2
2018-12-04T00:48:41.193Z,1.2
2018-12-04T00:51:41.121Z,1.1
2018-12-04T00:54:41.107Z,1.2
2018-12-04T00:57:41.300Z,1.4
2018-12-04T01:00:41.592Z,1.2
2018-12-04T01:03:40.813Z,1
2018-12-04T01:06:41.197Z,1.2
2018-12-04T01:09:40.881Z,1.1
2018-12-04T01:12:40.999Z,1
2018-12-04T01:15:41.054Z,1.1
2018-12-04T01:18:41.532Z,1.6
2018-12-04T01:21:41.189Z,1
2018-12-04T01:24:41.504Z,1.6
2018-12-04T01:27:41.129Z,1.6
2018-12-04T01:30:41.128Z,1
2018-12-04T01:33:41.079Z,1.2
2018-12-04T01:36:40.994Z,1.1
2018-12-04T01:39:40.797Z,1
2018-12-04T01:42:40.879Z,0.8
2018-12-04T01:45:40.786Z,1
2018-12-04T01:48:40.813Z,0.9
2018-12-04T01:51:40.934Z,1
2018-12-04T01:54:40.900Z,1
2018-12-04T01:57:41.214Z,1
2018-12-04T02:00:41.150Z,1.2
2018-12-04T02:03:41.017Z,1.2
2018-12-04T02:06:41.079Z,1
2018-12-04T02:09:40.999Z,1.1
2018-12-04T02:12:41.025Z,1
2018-12-04T02:15:41.146Z,0.9
2018-12-04T02:18:40.973Z,1
2018-12-04T02:21:41.405Z,1
2018-12-04T02:24:41.143Z,1
2018-12-04T02:27:40.767Z,1.1
2018-12-04T02:30:41.002Z,1.1
2018-12-04T02:33:40.796Z,1.1
2018-12-04T02:36:41.359Z,1
2018-12-04T02:39:41.042Z,1.1
2018-12-04T02:42:40.972Z,1.2
2018-12-04T02:45:41.074Z,1.2
2018-12-04T02:48:40.888Z,1.2
2018-12-04T02:51:41.104Z,0.9
2018-12-04T02:54:41.290Z,0.9
2018-12-04T02:57:41.970Z,1
2018-12-04T03:00:40.893Z,1.2
2018-12-04T03:03:40.782Z,1.1
2018-12-04T03:06:40.846Z,1.1
2018-12-04T03:09:41.052Z,1
2018-12-04T03:12:40.945Z,1.1
2018-12-04T03:15:40.907Z,0.9
2018-12-04T03:18:40.993Z,1.2
2018-12-04T03:21:40.807Z,0.9
2018-12-04T03:24:40.770Z,1.1
2018-12-04T03:27:40.953Z,1
2018-12-04T03:30:40.983Z,1.3
2018-12-04T03:33:40.935Z,1.1
2018-12-04T03:36:41.207Z,1.1
2018-12-04T03:39:40.860Z,1.1
2018-12-04T03:42:40.974Z,1.1
2018-12-04T03:45:40.771Z,1.2
2018-12-04T03:48:40.895Z,1
2018-12-04T03:51:40.825Z,1.1
2018-12-04T03:54:41.815Z,1.1
2018-12-04T03:57:40.835Z,0.9
2018-12-04T04:00:41.228Z,1.1
2018-12-04T04:03:40.802Z,1.1
2018-12-04T04:06:41.731Z,1
2018-12-04T04:09:40.764Z,1.1
2018-12-04T04:12:41.702Z,1
2018-12-04T04:15:41.415Z,1.1
2018-12-04T04:18:41.633Z,0.9
2018-12-04T04:21:41.026Z,1
2018-12-04T04:24:40.961Z,0.9
2018-12-04T04:27:41.001Z,1.1
2018-12-04T04:30:41.109Z,1.1
2018-12-04T04:33:40.817Z,1
2018-12-04T04:36:40.695Z,0.9
2018-12-04T04:39:40.973Z,0.9
2018-12-04T04:42:40.923Z,0.9
2018-12-04T04:45:41.056Z,1
2018-12-04T04:48:40.847Z,1
2018-12-04T04:51:40.827Z,1.2
2018-12-04T04:54:40.788Z,0.9
2018-12-04T04:57:40.875Z,1.1
2018-12-04T05:00:40.857Z,0.9
2018-12-04T05:03:40.749Z,1.4
2018-12-04T05:06:40.792Z,0.9
2018-12-04T05:09:40.770Z,0.9
2018-12-04T05:12:41.159Z,0.9
2018-12-04T05:15:41.014Z,1
2018-12-04T05:18:40.882Z,1
2018-12-04T05:21:40.925Z,1.2
2018-12-04T05:24:40.789Z,0.9
2018-12-04T05:27:41.136Z,1.4
2018-12-04T05:30:40.962Z,0.9
2018-12-04T05:33:40.756Z,1
2018-12-04T05:36:40.836Z,0.9
2018-12-04T05:39:41.088Z,1
2018-12-04T05:42:41.109Z,1.1
2018-12-04T05:45:41.018Z,1.3
2018-12-04T05:48:40.824Z,0.9
2018-12-04T05:51:41.190Z,1
2018-12-04T05:54:41.025Z,0.9
2018-12-04T05:57:40.934Z,0.9
2018-12-04T06:00:40.938Z,0.9
2018-12-04T06:03:41.148Z,1
2018-12-04T06:06:40.910Z,1
2018-12-04T06:09:41.245Z,0.9
2018-12-04T06:12:41.048Z,0.9
2018-12-04T06:15:41.035Z,0.9
2018-12-04T06:18:41.099Z,1
2018-12-04T06:21:40.741Z,0.8
2018-12-04T06:24:41.092Z,1.1
2018-12-04T06:27:40.819Z,1
2018-12-04T06:30:40.838Z,1.1
2018-12-04T06:33:40.592Z,1
2018-12-04T06:36:40.875Z,0.9
2018-12-04T06:39:40.758Z,0.9
2018-12-04T06:42:40.831Z,0.8
2018-12-04T06:45:40.767Z,0.9
2018-12-04T06:48:40.954Z,0.9
2018-12-04T06:51:40.773Z,0.9
2018-12-04T06:54:40.821Z,0.9
2018-12-04T06:57:41.125Z,0.8
2018-12-04T07:00:40.873Z,0.8
2018-12-04T07:03:41.076Z,0.9
2018-12-04T07:06:40.856Z,0.9
2018-12-04T07:09:40.806Z,1
2018-12-04T07:12:41.135Z,0.9
2018-12-04T07:15:40.758Z,1
2018-12-04T07:18:40.879Z,0.9
2018-12-04T07:21:41.566Z,0.8
2018-12-04T07:24:41.012Z,0.9
2018-12-04T07:27:40.828Z,1.2
2018-12-04T07:30:41.220Z,0.9
2018-12-04T07:33:40.888Z,1
2018-12-04T07:36:40.912Z,1
2018-12-04T07:39:41.138Z,1
2018-12-04T07:42:40.969Z,1
2018-12-04T07:45:41.242Z,1
2018-12-04T07:48:40.779Z,0.9
2018-12-04T07:51:41.116Z,0.9
2018-12-04T07:54:40.726Z,0.9
2018-12-04T07:57:40.702Z,0.9
2018-12-04T08:00:40.777Z,0.8
2018-12-04T08:03:40.761Z,0.9
2018-12-04T08:06:40.771Z,1
2018-12-04T08:09:40.751Z,0.9
2018-12-04T08:12:41.066Z,0.8
2018-12-04T08:15:40.724Z,1
2018-12-04T08:18:40.463Z,1
2018-12-04T08:21:40.910Z,0.9
2018-12-04T08:24:40.774Z,0.9
2018-12-04T08:27:41.091Z,0.9
2018-12-04T08:30:40.786Z,0.9
2018-12-04T08:33:40.864Z,0.9
2018-12-04T08:36:40.784Z,1
2018-12-04T08:39:40.959Z,0.9
2018-12-04T08:42:41.119Z,0.9
2018-12-04T08:45:40.537Z,0.9
2018-12-04T08:48:40.731Z,0.9
2018-12-04T08:51:40.748Z,1.1
2018-12-04T08:54:40.980Z,0.9
2018-12-04T08:57:41.182Z,0.8
2018-12-04T09:00:41.009Z,1
2018-12-04T09:03:40.829Z,1
2018-12-04T09:06:41.029Z,0.9
2018-12-04T09:09:40.759Z,0.9
2018-12-04T09:12:40.525Z,1
2018-12-04T09:15:41.321Z,0.9
2018-12-04T09:18:41.768Z,0.9
2018-12-04T09:21:41.192Z,1.1
2018-12-04T09:24:41.490Z,0.8
2018-12-04T09:27:41.475Z,0.9
2018-12-04T09:30:41.062Z,1.2
2018-12-04T09:33:41.912Z,1.2
2018-12-04T09:36:40.827Z,1
2018-12-04T09:39:40.771Z,0.9
2018-12-04T09:42:40.924Z,1.1
2018-12-04T09:45:40.826Z,1
2018-12-04T09:48:40.748Z,1
2018-12-04T09:51:40.564Z,1
2018-12-04T09:54:40.819Z,0.9
2018-12-04T09:57:40.765Z,0.9
2018-12-04T10:00:40.734Z,1.2
2018-12-04T10:03:40.841Z,0.9
2018-12-04T10:06:40.874Z,0.9
2018-12-04T10:09:40.820Z,1.1
2018-12-04T10:12:40.849Z,1
2018-12-04T10:15:41.090Z,1
2018-12-04T10:18:47.459Z,0.9
2018-12-04T10:21:40.695Z,1.1
2018-12-04T10:24:40.694Z,1
2018-12-04T10:27:40.927Z,0.9
2018-12-04T10:30:40.886Z,0.8
2018-12-04T10:33:40.551Z,0.8
2018-12-04T10:36:40.756Z,2.1
2018-12-04T10:39:40.771Z,1.5
2018-12-04T10:42:40.538Z,1.4
2018-12-04T10:45:41.009Z,2.1
2018-12-04T10:48:41.007Z,1.1
2018-12-04T10:51:40.440Z,1.1
2018-12-04T10:54:41.084Z,1.1
2018-12-04T10:57:40.987Z,1
2018-12-04T11:00:41.065Z,1
2018-12-04T11:03:41.070Z,0.8
2018-12-04T11:06:40.781Z,0.9
2018-12-04T11:09:40.746Z,1
2018-12-04T11:12:41.016Z,1
2018-12-04T11:15:40.881Z,0.9
2018-12-04T11:18:40.932Z,0.9
2018-12-04T11:21:40.747Z,0.9
2018-12-04T11:24:41.151Z,1.1
2018-12-04T11:27:40.521Z,1.2
2018-12-04T11:30:40.812Z,1
2018-12-04T11:33:40.639Z,0.8
2018-12-04T11:36:40.930Z,2.1
2018-12-04T11:39:40.894Z,1.9
2018-12-04T11:42:40.809Z,0.8
2018-12-04T11:45:40.463Z,0.9
2018-12-04T11:48:40.964Z,1.5
2018-12-04T11:51:40.639Z,1.1
2018-12-04T11:54:40.436Z,1
2018-12-04T11:57:40.573Z,1.1
2018-12-04T12:00:40.737Z,1
2018-12-04T12:03:40.832Z,0.8
2018-12-04T12:06:40.893Z,1.2
2018-12-04T12:09:40.826Z,1.1
2018-12-04T12:12:41.179Z,1
2018-12-04T12:15:40.586Z,1.1
2018-12-04T12:18:40.432Z,1.1
2018-12-04T12:21:40.710Z,0.9
2018-12-04T12:24:40.894Z,1.1
2018-12-04T12:27:40.501Z,1.2
2018-12-04T12:30:40.775Z,1.1
2018-12-04T12:33:41.002Z,1.2
2018-12-04T12:36:40.546Z,1
2018-12-04T12:39:41.505Z,1.2
2018-12-04T12:42:40.512Z,1
2018-12-04T12:45:40.435Z,1.2
2018-12-04T12:48:40.906Z,1
2018-12-04T12:51:40.584Z,1
2018-12-04T12:54:41.125Z,1
2018-12-04T12:57:40.768Z,1.2
2018-12-04T13:00:40.558Z,1.3
2018-12-04T13:03:40.459Z,1.3
2018-12-04T13:06:40.452Z,1.6
2018-12-04T13:09:40.558Z,1.5
2018-12-04T13:12:40.402Z,1.4
2018-12-04T13:15:40.484Z,1.3
2018-12-04T13:18:40.636Z,1.3
2018-12-04T13:21:41.341Z,1.5
2018-12-04T13:24:40.726Z,1.4
2018-12-04T13:27:40.815Z,1.4
2018-12-04T13:30:40.689Z,1.4
2018-12-04T13:33:40.804Z,1.3
2018-12-04T13:36:42.355Z,1.7
2018-12-04T13:39:40.801Z,1.6
2018-12-04T13:42:41.145Z,1.3
2018-12-04T13:45:40.686Z,1.4
2018-12-04T13:48:40.882Z,1.6
2018-12-04T13:51:40.684Z,1.2
2018-12-04T13:54:40.764Z,1.5
2018-12-04T13:57:41.429Z,1.5
2018-12-04T14:00:41.417Z,1.4
2018-12-04T14:03:41.265Z,1.4
2018-12-04T14:06:41.081Z,1.6
2018-12-04T14:09:41.273Z,3.4
2018-12-04T14:12:40.830Z,3
2018-12-04T14:15:41.308Z,2.5
2018-12-04T14:18:40.718Z,2.1
2018-12-04T14:21:40.675Z,1.7
2018-12-04T14:24:40.761Z,1.8
2018-12-04T14:27:40.617Z,2.2
2018-12-04T14:30:41.023Z,2.2
2018-12-04T14:33:40.694Z,1.7
2018-12-04T14:36:41.144Z,3.1
2018-12-04T14:39:40.889Z,2.8
2018-12-04T14:42:41.194Z,2.4
2018-12-04T14:45:40.643Z,2.3
2018-12-04T14:48:40.601Z,3.8
2018-12-04T14:51:40.734Z,2.9
2018-12-04T14:54:40.857Z,3
2018-12-04T14:57:41.001Z,2.2
2018-12-04T15:00:41.226Z,1.7
2018-12-04T15:03:40.764Z,3.4
2018-12-04T15:06:40.812Z,1.7
2018-12-04T15:09:41.062Z,2.1
2018-12-04T15:12:41.073Z,1.6
2018-12-04T15:15:40.793Z,1.6
2018-12-04T15:18:41.426Z,1.6
2018-12-04T15:21:41.241Z,2.4
2018-12-04T15:24:41.010Z,1.7
2018-12-04T15:27:41.104Z,2.2
2018-12-04T15:30:40.865Z,2.1
2018-12-04T15:33:40.940Z,1.5
2018-12-04T15:36:41.304Z,2
2018-12-04T15:39:42.737Z,2
2018-12-04T15:42:40.861Z,1.9
2018-12-04T15:45:41.011Z,1.8
2018-12-04T15:48:41.159Z,1.7
2018-12-04T15:51:41.214Z,1.5
2018-12-04T15:54:41.081Z,1.8
2018-12-04T15:57:40.855Z,7.9
2018-12-04T16:00:40.628Z,2.3
2018-12-04T16:03:40.413Z,3.7
2018-12-04T16:06:40.865Z,3.2
2018-12-04T16:09:40.903Z,5.3
2018-12-04T16:12:40.703Z,4.2
2018-12-04T16:15:41.032Z,3
2018-12-04T16:18:40.916Z,2.4
2018-12-04T16:21:40.859Z,2.4
2018-12-04T16:24:40.486Z,2.4
2018-12-04T16:27:40.812Z,7
2018-12-04T16:30:41.010Z,3.7
2018-12-04T16:33:40.580Z,2.5
2018-12-04T16:36:40.830Z,2.9
2018-12-04T16:39:40.990Z,3.9
2018-12-04T16:42:40.895Z,3.1
2018-12-04T16:45:40.819Z,9.9
2018-12-04T16:48:40.424Z,2.4
2018-12-04T16:51:40.543Z,2.3
2018-12-04T16:54:40.373Z,2.9
2018-12-04T16:57:41.114Z,8.7
2018-12-04T17:00:40.356Z,4.2
2018-12-04T17:03:40.803Z,4.8
2018-12-04T17:06:40.951Z,3.8
2018-12-04T17:09:40.791Z,4.8
2018-12-04T17:12:40.528Z,4.2
2018-12-04T17:15:40.859Z,2.4
2018-12-04T17:18:40.410Z,3.6
2018-12-04T17:21:40.771Z,2.9
2018-12-04T17:24:41.741Z,3
2018-12-04T17:27:40.364Z,3.7
2018-12-04T17:30:41.219Z,4.7
2018-12-04T17:33:40.836Z,5.6
2018-12-04T17:36:40.275Z,3
2018-12-04T17:39:40.392Z,2.8
2018-12-04T17:42:42.768Z,2
2018-12-04T17:45:40.615Z,2
2018-12-04T17:48:40.693Z,3.2
2018-12-04T17:51:40.671Z,3.8
2018-12-04T17:54:41.020Z,2.7
2018-12-04T17:57:40.469Z,2.1
2018-12-04T18:00:41.458Z,2.8
2018-12-04T18:03:40.498Z,5.2
2018-12-04T18:06:40.570Z,2.9
2018-12-04T18:09:40.575Z,3.2
2018-12-04T18:12:40.486Z,3
2018-12-04T18:15:40.472Z,3.5
2018-12-04T18:18:40.444Z,3.1
2018-12-04T18:21:40.625Z,2.7
2018-12-04T18:24:40.645Z,1.8
2018-12-04T18:27:40.247Z,3
2018-12-04T18:30:40.780Z,2.9
2018-12-04T18:33:40.572Z,4.7
2018-12-04T18:36:40.346Z,3
2018-12-04T18:39:40.821Z,3.4
2018-12-04T18:42:41.043Z,2.3
2018-12-04T18:45:40.652Z,2.4
2018-12-04T18:48:40.687Z,2.3
2018-12-04T18:51:40.570Z,2.6
2018-12-04T18:54:40.288Z,3.5
2018-12-04T18:57:40.778Z,3.2
2018-12-04T19:00:40.441Z,2.6
2018-12-04T19:03:41.262Z,2.5
2018-12-04T19:06:40.627Z,2.3
2018-12-04T19:09:40.801Z,3
2018-12-04T19:12:40.792Z,2.7
2018-12-04T19:15:40.644Z,8.2
2018-12-04T19:18:40.446Z,4
2018-12-04T19:21:40.365Z,5.8
2018-12-04T19:24:40.838Z,4.2
2018-12-04T19:27:41.197Z,4.1
2018-12-04T19:30:40.984Z,3.3
2018-12-04T19:33:40.839Z,3.9
2018-12-04T19:36:40.725Z,3.9
2018-12-04T19:39:40.905Z,5.5
2018-12-04T19:42:40.332Z,7.4
2018-12-04T19:45:40.412Z,6.9
2018-12-04T19:48:40.894Z,5.1
2018-12-04T19:51:40.637Z,8.1
2018-12-04T19:54:40.344Z,5.1
2018-12-04T19:57:40.564Z,3.1
2018-12-04T20:00:40.461Z,4.3
2018-12-04T20:03:41.711Z,6.5
2018-12-04T20:06:40.855Z,7.7
2018-12-04T20:09:40.763Z,6.5
2018-12-04T20:12:40.311Z,6.4
2018-12-04T20:15:40.345Z,7
2018-12-04T20:18:40.600Z,8.6
2018-12-04T20:21:40.633Z,8.6
2018-12-04T20:24:40.908Z,6.1
2018-12-04T20:27:40.941Z,6.1
2018-12-04T20:30:40.264Z,4.7
2018-12-04T20:33:40.310Z,5.9
2018-12-04T20:36:40.523Z,4.5
2018-12-04T20:39:40.748Z,4.7
2018-12-04T20:42:40.622Z,4.1
2018-12-04T20:45:40.495Z,7.6
2018-12-04T20:48:40.766Z,4.5
2018-12-04T20:51:40.571Z,5.1
2018-12-04T20:54:40.366Z,4.8
2018-12-04T20:57:40.531Z,5.7
2018-12-04T21:00:40.309Z,5.2
2018-12-04T21:03:40.436Z,3.6
2018-12-04T21:06:40.860Z,3.7
2018-12-04T21:09:40.238Z,5
2018-12-04T21:12:40.253Z,4.3
2018-12-04T21:15:40.387Z,5.7
2018-12-04T21:18:40.252Z,3.7
2018-12-04T21:21:41.294Z,4.6
2018-12-04T21:24:40.843Z,4.5
2018-12-04T21:27:40.796Z,3.9
2018-12-04T21:30:40.267Z,4
2018-12-04T21:33:40.738Z,4.3
2018-12-04T21:36:40.387Z,3.7
2018-12-04T21:39:40.282Z,5.4
2018-12-04T21:42:40.493Z,4.1
2018-12-04T21:45:40.433Z,6.1
2018-12-04T21:48:40.213Z,3.5
2018-12-04T21:51:40.261Z,4
2018-12-04T21:54:40.524Z,4.1
2018-12-04T21:57:40.622Z,4.3
2018-12-04T22:00:40.333Z,3.9
2018-12-04T22:03:41.252Z,3.7
2018-12-04T22:06:40.409Z,4.1
2018-12-04T22:09:40.790Z,3.9
2018-12-04T22:12:40.544Z,4.1
2018-12-04T22:15:41.097Z,3.7
2018-12-04T22:18:40.337Z,3.5
2018-12-04T22:21:40.654Z,3.5
2018-12-04T22:24:40.896Z,3.7
2018-12-04T22:27:40.246Z,3.4
2018-12-04T22:30:40.353Z,3.3
2018-12-04T22:33:40.394Z,4
2018-12-04T22:36:40.680Z,3.5
2018-12-04T22:39:40.171Z,3.7
2018-12-04T22:42:40.411Z,4.8
2018-12-04T22:45:40.161Z,3.4
2018-12-04T22:48:40.640Z,4
2018-12-04T22:51:40.319Z,3.8
2018-12-04T22:54:40.748Z,3.3
2018-12-04T22:57:40.210Z,3.5
2018-12-04T23:00:40.626Z,3.2
2018-12-04T23:03:40.135Z,3
2018-12-04T23:06:40.481Z,4.4
2018-12-04T23:09:40.472Z,3.3
2018-12-04T23:12:40.130Z,3.3
2018-12-04T23:15:40.305Z,3.5
2018-12-04T23:18:40.665Z,3.4
2018-12-04T23:21:40.403Z,3.2
2018-12-04T23:24:40.242Z,3.2
2018-12-04T23:27:40.468Z,3.2
2018-12-04T23:30:40.430Z,3
2018-12-04T23:33:40.357Z,2.8
2018-12-04T23:36:40.785Z,3
2018-12-04T23:39:40.325Z,3.2
2018-12-04T23:42:40.237Z,3
2018-12-04T23:45:40.754Z,3.2
2018-12-04T23:48:40.181Z,3.1
2018-12-04T23:51:40.127Z,3.1
2018-12-04T23:54:40.501Z,3.1
2018-12-04T23:57:40.180Z,3.1
